Language selection

Weather shortcuts

Northern Grand Banks: Past 24 Hour Conditions

 

West Chedabucto Bay - 44489

07:00 AM ADT 22 May 2024Buoy position: 45.49N 61.14W
Disclaimer

This table is a summary of hourly weather conditions for the past 24 hours.
Please note that these observations might not always be representative of weather conditions over their associated marine area.

Date / Time
(ADT)
Wind(knots) Wave height(m) Wave period(s) Pressure(kPa) Air tempC) Water tempC)
22 May 2024
7:00 WSW 10 gusts 12 0.24 3.9 101.0 9 9
6:00 W 6 gusts 8 0.24 4.4 101.1 9 9
5:00 WSW 9 gusts 11 0.23 3.6 101.0 9 9
4:00 SW 10 gusts 12 0.23 4.9 101.1 8 9
3:00 SW 12 gusts 15 0.35 3.4 101.1 8 9
2:00 SW 14 gusts 17 0.43 2.9 101.1 8 9
1:00 WSW 14 gusts 18 0.39 3.1 101.2 9 9
0:00 SW 10 gusts 12 0.35 3.8 101.2 9 9
21 May 2024
23:00 W 9 gusts 12 0.44 3.4 101.2 10 9
22:00 SW 7 gusts 9 0.41 3.6 101.2 10 9
21:00 SW 6 gusts 8 0.51 3.4 101.2 9 7
20:00 SSE 2 gusts 3 0.62 3.7 101.2 11 7
19:00 WSW 17 gusts 22 0.70 3.4 101.1 11 8
18:00 WSW 18 gusts 21 0.68 3.5 101.1 11 8
17:00 WSW 17 gusts 19 0.81 3.7 101.1 11 8
16:00 SW 12 gusts 17 0.65 3.8 101.2 12 9
15:00 SW 18 gusts 21 0.56 3.4 101.1 11 9
14:00 SW 12 gusts 15 0.42 5.8 101.3 11 9
13:00 SE 9 gusts 10 0.38 6.1 101.4 10 9
12:00 SSE 8 gusts 10 0.36 6.4 101.4 9 9
11:00 SSW 5 gusts 6 0.41 6.7 101.5 10 8
10:00 SSE 5 gusts 6 0.42 6.4 101.5 8 8
9:00 S 4 gusts 5 0.43 6.7 101.5 7 7
8:00 SW 4 gusts 5 0.44 6.2 101.5 7 7
7:00 WSW 6 gusts 8 0.47 6.3 101.5 7 7

Zoom-in to make a selection

Map of Atlantic - Newfoundland marine weather areas Banquereau - 44139 East Chedabucto Bay – 44488 West Chedabucto Bay – 44489 Blanc-Sablon Airport Cap Whittle Chevery Natashquan Airport Heath Point Îles de la Madeleine Airport Miscou Island Eskasoni (First Nations) Grand Étang Ingonish Beach North Mountain St.Paul Island J.A. Douglas McCurdy Sydney Airport Charlottetown Airport East Point North Cape Argentia Berry Hill Bonavista Burgeo Cape Race Corner Brook Daniel's Harbour Englee Ferolle Point La Scie Port aux Basques Sagona Island St. Anthony Airport St. John's Int'l Airport St. Lawrence Stephenville Airport Twillingate Winterland Branch Hill Wreckhouse Grates Cove Pool's Island Marticot Island Long Pond Cartwright Airport Mary's Harbour
Legend:
buoy Buoy
land station Land Station

Atlantic - Newfoundland Area

Another Region

Date modified: